Time;durP1;ratioP1;P1;durP2;ratioP2;P2;SDS_P1;SDS_P2;PMS_P1;PMS_P2;Temp;Humidity;BMP_temperature;BMP_pressure;BME280_temperature;BME280_humidity;BME280_pressure;Samples;Min_cycle;Max_cycle;Signal;HPM_P1;HPM_P2
2024/01/06 00:02:23;;;;;;;8.07;4.10;;;3.20;99.90;;;;;;5028155;28;20032;-83
2024/01/06 00:04:48;;;;;;;5.50;3.00;;;3.20;99.90;;;;;;5049935;28;20139;-83
2024/01/06 00:07:14;;;;;;;8.75;4.03;;;3.20;99.90;;;;;;5045394;28;20033;-82
2024/01/06 00:09:40;;;;;;;12.85;5.30;;;3.20;99.90;;;;;;5050435;28;20040;-83
2024/01/06 00:12:06;;;;;;;8.43;4.53;;;3.20;99.90;;;;;;5030195;28;20087;-83
2024/01/06 00:14:32;;;;;;;14.32;5.35;;;3.20;99.90;;;;;;5046896;28;20138;-83
2024/01/06 00:16:57;;;;;;;10.55;5.03;;;3.20;99.90;;;;;;5050500;28;20407;-83
2024/01/06 00:19:23;;;;;;;10.38;5.78;;;3.20;99.90;;;;;;5046681;28;20191;-83
2024/01/06 00:21:49;;;;;;;11.88;5.13;;;3.20;99.90;;;;;;5044671;28;20037;-83
2024/01/06 00:24:14;;;;;;;8.02;3.72;;;3.20;99.90;;;;;;5039056;28;20060;-83
2024/01/06 00:26:40;;;;;;;7.55;3.85;;;3.20;99.90;;;;;;5028096;28;20036;-83
2024/01/06 00:29:06;;;;;;;7.80;4.65;;;3.20;99.90;;;;;;5037722;28;20036;-82
2024/01/06 00:31:32;;;;;;;15.75;6.47;;;3.20;99.90;;;;;;5038744;28;20040;-83
2024/01/06 00:33:57;;;;;;;10.10;5.07;;;3.10;99.90;;;;;;5046842;28;20045;-83
2024/01/06 00:36:23;;;;;;;13.63;6.10;;;3.20;99.90;;;;;;5035467;28;20048;-83
2024/01/06 00:38:49;;;;;;;12.50;5.88;;;3.20;99.90;;;;;;5049643;28;20041;-83
2024/01/06 00:41:15;;;;;;;11.27;5.47;;;3.20;99.90;;;;;;5044073;28;20125;-83
2024/01/06 00:43:47;;;;;;;11.30;4.78;;;3.20;99.90;;;;;;5052102;28;20072;-83
2024/01/06 00:46:27;;;;;;;7.43;4.33;;;3.20;99.90;;;;;;5033404;28;20049;-83
2024/01/06 00:48:52;;;;;;;11.57;5.63;;;3.10;99.90;;;;;;5047768;28;20051;-83
2024/01/06 00:51:18;;;;;;;13.13;7.43;;;3.20;99.90;;;;;;5034383;28;20040;-82
2024/01/06 00:53:44;;;;;;;15.80;5.75;;;3.10;99.90;;;;;;5048328;28;20051;-83
2024/01/06 00:56:09;;;;;;;12.27;5.32;;;3.10;99.90;;;;;;5051754;28;20037;-83
2024/01/06 00:58:35;;;;;;;8.57;5.05;;;3.00;99.90;;;;;;5029787;28;20037;-83
2024/01/06 01:01:01;;;;;;;8.02;5.45;;;3.00;99.90;;;;;;5022865;28;20033;-83
2024/01/06 01:03:27;;;;;;;13.75;5.70;;;3.00;99.90;;;;;;5031340;28;20037;-83
2024/01/06 01:05:53;;;;;;;10.05;5.07;;;2.90;99.90;;;;;;5033810;28;20036;-83
2024/01/06 01:08:18;;;;;;;8.02;4.32;;;2.90;99.90;;;;;;5027960;28;20033;-83
2024/01/06 01:10:45;;;;;;;12.15;4.63;;;2.90;99.90;;;;;;5044165;28;20043;-83
2024/01/06 01:13:11;;;;;;;6.50;3.33;;;2.90;99.90;;;;;;5037974;28;20040;-83
2024/01/06 01:15:36;;;;;;;8.70;4.55;;;2.90;99.90;;;;;;5034226;28;20081;-83
2024/01/06 01:18:33;;;;;;;7.28;4.03;;;2.80;99.90;;;;;;5022720;28;20380;-83
2024/01/06 01:20:58;;;;;;;7.35;4.20;;;2.80;99.90;;;;;;5034235;28;20089;-83
2024/01/06 01:23:24;;;;;;;8.23;3.83;;;2.80;99.90;;;;;;5029227;28;20052;-83
2024/01/06 01:25:50;;;;;;;7.13;4.30;;;2.80;99.90;;;;;;5049518;28;20064;-83
2024/01/06 01:28:16;;;;;;;10.50;3.85;;;2.80;99.90;;;;;;5029347;28;20483;-83
2024/01/06 01:30:41;;;;;;;8.55;4.50;;;2.70;99.90;;;;;;5046841;28;20494;-83
2024/01/06 01:33:07;;;;;;;7.53;3.55;;;2.70;99.90;;;;;;5037967;28;20064;-83
2024/01/06 01:35:33;;;;;;;5.30;3.22;;;2.70;99.90;;;;;;5051359;28;20498;-83
2024/01/06 01:37:59;;;;;;;12.50;5.55;;;2.70;99.90;;;;;;5035394;28;20032;-83
2024/01/06 01:40:25;;;;;;;5.38;3.70;;;2.70;99.90;;;;;;5049778;28;20513;-83
2024/01/06 01:42:51;;;;;;;7.57;3.40;;;2.70;99.90;;;;;;5042543;28;20033;-83
2024/01/06 01:45:23;;;;;;;6.80;3.28;;;2.70;99.90;;;;;;5032998;28;20046;-83
2024/01/06 01:47:49;;;;;;;4.32;2.97;;;2.70;99.90;;;;;;5034521;28;20033;-83
2024/01/06 01:50:15;;;;;;;8.00;3.67;;;2.70;99.90;;;;;;5037205;28;20033;-83
2024/01/06 01:52:42;;;;;;;8.00;3.40;;;2.70;99.90;;;;;;5048684;28;20067;-83
2024/01/06 01:55:08;;;;;;;13.38;4.65;;;2.70;99.90;;;;;;5046273;28;20045;-83
2024/01/06 01:57:34;;;;;;;9.30;3.42;;;2.60;99.90;;;;;;5035304;28;20063;-83
2024/01/06 02:00:01;;;;;;;5.53;3.50;;;2.60;99.90;;;;;;5029867;28;20072;-83
2024/01/06 02:02:28;;;;;;;13.40;3.22;;;2.60;99.90;;;;;;5031674;28;20036;-83
2024/01/06 02:04:56;;;;;;;6.72;3.80;;;2.60;99.90;;;;;;5038023;28;20044;-83
2024/01/06 02:07:21;;;;;;;7.38;3.38;;;2.60;99.90;;;;;;5030896;28;20036;-83
2024/01/06 02:09:47;;;;;;;8.40;3.15;;;2.50;99.90;;;;;;5046601;28;20107;-83
2024/01/06 02:12:13;;;;;;;7.25;3.65;;;2.50;99.90;;;;;;5055031;28;20451;-83
2024/01/06 02:14:38;;;;;;;7.28;3.88;;;2.50;99.90;;;;;;5029173;28;20025;-83
2024/01/06 02:17:04;;;;;;;5.05;3.40;;;2.50;99.90;;;;;;5021005;28;20041;-83
2024/01/06 02:19:30;;;;;;;8.32;3.15;;;2.50;99.90;;;;;;5048873;28;20402;-83
2024/01/06 02:21:56;;;;;;;7.72;3.70;;;2.50;99.90;;;;;;5047858;28;20394;-83
2024/01/06 02:24:21;;;;;;;7.78;4.20;;;2.40;99.90;;;;;;5068310;28;20037;-83
2024/01/06 02:26:47;;;;;;;5.97;4.20;;;2.50;99.90;;;;;;5041683;28;20095;-83
2024/01/06 02:29:13;;;;;;;7.97;4.72;;;2.50;99.90;;;;;;5026157;28;20120;-83
2024/01/06 02:31:39;;;;;;;6.28;3.47;;;2.40;99.90;;;;;;5044727;28;20043;-83
2024/01/06 02:34:04;;;;;;;10.32;4.60;;;2.40;99.90;;;;;;5029519;28;20060;-83
2024/01/06 02:36:30;;;;;;;9.25;4.88;;;2.40;99.90;;;;;;5049346;28;20045;-83
2024/01/06 02:38:56;;;;;;;9.15;4.00;;;2.40;99.90;;;;;;5051753;28;20029;-83
2024/01/06 02:41:22;;;;;;;6.28;3.58;;;2.40;99.90;;;;;;5051029;28;20086;-83
2024/01/06 02:43:47;;;;;;;7.32;3.95;;;2.30;99.90;;;;;;5056435;28;20032;-83
2024/01/06 02:46:13;;;;;;;7.78;3.92;;;2.40;99.90;;;;;;5029522;28;20252;-83
2024/01/06 02:48:47;;;;;;;9.88;4.57;;;2.30;99.90;;;;;;5047476;28;20044;-83
2024/01/06 02:51:12;;;;;;;6.03;3.38;;;2.30;99.90;;;;;;5040830;28;20033;-83
2024/01/06 02:53:38;;;;;;;12.30;4.55;;;2.30;99.90;;;;;;5044270;28;20063;-83
2024/01/06 02:56:09;;;;;;;9.13;3.85;;;2.30;99.90;;;;;;5036792;28;20041;-83
2024/01/06 02:58:34;;;;;;;6.22;3.78;;;2.30;99.90;;;;;;5023930;28;20108;-83
2024/01/06 03:01:00;;;;;;;10.00;3.80;;;2.30;99.90;;;;;;5044261;28;20886;-83
2024/01/06 03:03:26;;;;;;;9.30;3.58;;;2.20;99.90;;;;;;5061287;28;20071;-83
2024/01/06 03:05:52;;;;;;;7.00;3.55;;;2.20;99.90;;;;;;5038145;28;20126;-83
2024/01/06 03:08:17;;;;;;;7.90;3.92;;;2.20;99.90;;;;;;5039328;28;20040;-83
2024/01/06 03:10:43;;;;;;;8.40;4.13;;;2.20;99.90;;;;;;5061024;28;20434;-83
2024/01/06 03:13:09;;;;;;;7.00;3.67;;;2.20;99.90;;;;;;5036614;28;20033;-83
2024/01/06 03:15:35;;;;;;;6.93;4.28;;;2.30;99.90;;;;;;5077272;28;20039;-83
2024/01/06 03:18:01;;;;;;;5.65;3.40;;;2.20;99.90;;;;;;5020567;28;20029;-83
2024/01/06 03:20:26;;;;;;;6.53;3.33;;;2.30;99.90;;;;;;5016633;28;20511;-83
2024/01/06 03:22:52;;;;;;;5.50;3.83;;;2.30;99.90;;;;;;5038103;28;20085;-83
2024/01/06 03:25:18;;;;;;;12.80;4.35;;;2.30;99.90;;;;;;5032080;28;20054;-82
2024/01/06 03:27:43;;;;;;;7.45;3.33;;;2.30;99.90;;;;;;5041650;28;20102;-83
2024/01/06 03:30:10;;;;;;;6.80;3.28;;;2.20;99.90;;;;;;5040148;28;20099;-83
2024/01/06 03:32:36;;;;;;;5.50;3.22;;;2.20;99.90;;;;;;5043163;28;20111;-83
2024/01/06 03:35:01;;;;;;;11.02;4.15;;;2.20;99.90;;;;;;5048932;28;20525;-83
2024/01/06 03:37:27;;;;;;;7.35;3.78;;;2.20;99.90;;;;;;5020392;28;20120;-83
2024/01/06 03:39:53;;;;;;;7.05;2.58;;;2.20;99.90;;;;;;5023425;28;20406;-83
2024/01/06 03:42:19;;;;;;;6.20;4.18;;;2.20;99.90;;;;;;5023405;28;20663;-83
2024/01/06 03:44:57;;;;;;;10.48;3.45;;;2.20;99.90;;;;;;5050265;28;20080;-83
2024/01/06 03:47:30;;;;;;;7.13;3.58;;;2.20;99.90;;;;;;5028942;28;20071;-83
2024/01/06 03:49:55;;;;;;;6.32;3.70;;;2.10;99.90;;;;;;5048592;28;20063;-83
2024/01/06 03:52:21;;;;;;;6.28;4.25;;;2.20;99.90;;;;;;5059093;28;20039;-83
2024/01/06 03:54:47;;;;;;;5.75;3.30;;;2.10;99.90;;;;;;5066839;28;20418;-83
2024/01/06 03:57:13;;;;;;;5.70;3.05;;;2.10;99.90;;;;;;5038833;28;20083;-83
2024/01/06 03:59:39;;;;;;;8.40;4.22;;;2.10;99.90;;;;;;5055967;28;20048;-83
2024/01/06 04:02:04;;;;;;;7.93;4.28;;;2.10;99.90;;;;;;5052533;28;20044;-83
2024/01/06 04:04:30;;;;;;;11.73;3.92;;;2.10;99.90;;;;;;5066825;28;20037;-83
2024/01/06 04:06:56;;;;;;;7.10;4.10;;;2.10;99.90;;;;;;5073352;28;20036;-83
2024/01/06 04:09:21;;;;;;;7.65;3.55;;;2.10;99.90;;;;;;5055802;28;20181;-83
2024/01/06 04:11:47;;;;;;;7.13;3.15;;;2.10;99.90;;;;;;5041990;28;20043;-83
2024/01/06 04:14:13;;;;;;;3.60;2.60;;;2.10;99.90;;;;;;5089265;28;20033;-83
2024/01/06 04:16:39;;;;;;;8.20;4.30;;;2.10;99.90;;;;;;5049401;28;20405;-83
2024/01/06 04:19:07;;;;;;;8.32;3.50;;;2.10;99.90;;;;;;5060125;28;20043;-83
2024/01/06 04:21:33;;;;;;;6.70;3.53;;;2.20;99.90;;;;;;5070876;28;20158;-83
2024/01/06 04:23:58;;;;;;;9.23;4.20;;;2.20;99.90;;;;;;5054030;28;20453;-83
2024/01/06 04:26:25;;;;;;;7.15;3.17;;;2.20;99.90;;;;;;5054305;28;20446;-83
2024/01/06 04:28:50;;;;;;;9.63;4.10;;;2.20;99.90;;;;;;5066989;28;20032;-83
2024/01/06 04:31:16;;;;;;;7.22;4.63;;;2.20;99.90;;;;;;5038738;28;20094;-83
2024/01/06 04:33:42;;;;;;;7.57;3.47;;;2.20;99.90;;;;;;5054082;28;20095;-83
2024/01/06 04:36:08;;;;;;;7.80;4.30;;;2.20;99.90;;;;;;5045190;28;20040;-83
2024/01/06 04:38:33;;;;;;;8.68;5.15;;;2.20;99.90;;;;;;5043324;28;20032;-83
2024/01/06 04:40:59;;;;;;;8.23;4.30;;;2.10;99.90;;;;;;5095089;28;20038;-83
2024/01/06 04:43:25;;;;;;;9.23;4.60;;;2.10;99.90;;;;;;5044726;28;20095;-83
2024/01/06 04:45:58;;;;;;;7.32;4.03;;;2.10;99.90;;;;;;5039463;28;20056;-83
2024/01/06 04:48:24;;;;;;;13.88;4.63;;;2.10;99.90;;;;;;5054111;28;20167;-83
2024/01/06 04:50:50;;;;;;;7.90;3.63;;;2.10;99.90;;;;;;5062425;28;20119;-83
2024/01/06 04:53:15;;;;;;;8.68;4.18;;;2.20;99.90;;;;;;5046171;28;20119;-83
2024/01/06 04:55:41;;;;;;;6.38;3.58;;;2.10;99.90;;;;;;5037721;28;20044;-83
2024/01/06 04:58:07;;;;;;;6.53;4.20;;;2.10;99.90;;;;;;5036457;28;20044;-83
2024/01/06 05:00:35;;;;;;;10.82;4.40;;;2.20;99.90;;;;;;5076208;28;20028;-83
2024/01/06 05:03:01;;;;;;;7.32;4.28;;;2.10;99.90;;;;;;5057622;28;20036;-83
2024/01/06 05:05:33;;;;;;;8.40;3.70;;;2.10;99.90;;;;;;5045194;28;20545;-83
2024/01/06 05:08:00;;;;;;;5.40;4.05;;;2.10;99.90;;;;;;5042165;28;20033;-83
2024/01/06 05:10:25;;;;;;;5.95;3.55;;;2.10;99.90;;;;;;5056473;28;20082;-83
2024/01/06 05:12:51;;;;;;;11.02;4.85;;;2.20;99.90;;;;;;5082510;28;20538;-83
2024/01/06 05:15:17;;;;;;;6.78;4.10;;;2.20;99.90;;;;;;5037536;28;20517;-83
2024/01/06 05:17:42;;;;;;;12.57;3.97;;;2.20;99.90;;;;;;5061843;28;20500;-82
2024/01/06 05:20:08;;;;;;;6.50;3.53;;;2.20;99.90;;;;;;5083956;28;20105;-83
2024/01/06 05:22:34;;;;;;;9.43;4.20;;;2.20;99.90;;;;;;5054081;28;20040;-83
2024/01/06 05:25:00;;;;;;;7.85;4.32;;;2.20;99.90;;;;;;5041590;28;20028;-83
2024/01/06 05:27:26;;;;;;;9.15;5.22;;;2.20;99.90;;;;;;5040999;28;20095;-83
2024/01/06 05:29:51;;;;;;;7.47;4.28;;;2.10;99.90;;;;;;5075536;28;20033;-83
2024/01/06 05:32:17;;;;;;;9.10;5.13;;;2.20;99.90;;;;;;5055436;28;20086;-83
2024/01/06 05:34:44;;;;;;;8.38;3.95;;;2.20;99.90;;;;;;5061218;28;20040;-82
2024/01/06 05:37:10;;;;;;;7.35;3.78;;;2.20;99.90;;;;;;5054588;28;20078;-83
2024/01/06 05:39:49;;;;;;;7.90;3.47;;;2.20;99.90;;;;;;5061918;28;20052;-83
2024/01/06 05:42:28;;;;;;;6.50;3.55;;;2.20;99.90;;;;;;5050211;28;20064;-83
2024/01/06 05:45:01;;;;;;;5.50;3.60;;;2.20;99.90;;;;;;5047602;28;20132;-82
2024/01/06 05:47:27;;;;;;;7.45;4.22;;;2.20;99.90;;;;;;5039227;28;20051;-82
2024/01/06 05:49:53;;;;;;;10.75;2.83;;;2.20;99.90;;;;;;5023037;28;20044;-82
2024/01/06 05:52:18;;;;;;;7.25;3.03;;;2.10;99.90;;;;;;5016478;28;20064;-82
2024/01/06 05:54:44;;;;;;;8.98;3.63;;;2.10;99.90;;;;;;5067415;28;20037;-84
2024/01/06 05:57:10;;;;;;;7.30;3.92;;;2.20;99.90;;;;;;5037731;28;20041;-84
2024/01/06 05:59:36;;;;;;;10.80;3.72;;;2.20;99.90;;;;;;5032574;28;20040;-83
2024/01/06 06:02:02;;;;;;;6.70;2.90;;;2.20;99.90;;;;;;5048545;28;20123;-83
2024/01/06 06:04:27;;;;;;;7.25;3.60;;;2.20;99.90;;;;;;5016878;28;20115;-82
2024/01/06 06:06:53;;;;;;;8.40;4.90;;;2.20;99.90;;;;;;5037514;28;20041;-82
2024/01/06 06:09:20;;;;;;;9.77;4.05;;;2.20;99.90;;;;;;5033968;28;20033;-82
2024/01/06 06:11:46;;;;;;;6.97;4.20;;;2.20;99.90;;;;;;5051712;28;20410;-83
2024/01/06 06:14:12;;;;;;;5.32;2.42;;;2.20;99.90;;;;;;5035177;28;20036;-83
2024/01/06 06:16:38;;;;;;;6.30;3.50;;;2.20;99.90;;;;;;5070385;28;20047;-83
2024/01/06 06:19:04;;;;;;;9.35;3.78;;;2.20;99.90;;;;;;5046152;28;20044;-82
2024/01/06 06:21:30;;;;;;;7.40;3.05;;;2.20;99.90;;;;;;5023955;28;20036;-82
2024/01/06 06:23:56;;;;;;;3.72;2.67;;;2.20;99.90;;;;;;5031406;28;20044;-82
2024/01/06 06:26:22;;;;;;;10.65;3.83;;;2.20;99.90;;;;;;5045120;28;20498;-82
2024/01/06 06:28:47;;;;;;;6.35;3.70;;;2.20;99.90;;;;;;5038436;28;20033;-82
2024/01/06 06:31:13;;;;;;;5.20;3.00;;;2.20;99.90;;;;;;5047984;28;20075;-82
2024/01/06 06:33:39;;;;;;;5.80;3.45;;;2.20;99.90;;;;;;5064183;28;20095;-82
2024/01/06 06:36:06;;;;;;;9.48;3.42;;;2.20;99.90;;;;;;5066501;28;20099;-82
2024/01/06 06:38:31;;;;;;;6.13;3.17;;;2.20;99.90;;;;;;5037572;28;20055;-82
2024/01/06 06:40:57;;;;;;;8.32;4.18;;;2.20;99.90;;;;;;5041413;28;20040;-82
2024/01/06 06:43:30;;;;;;;10.68;4.53;;;2.20;99.90;;;;;;5037573;28;20114;-82
2024/01/06 06:45:56;;;;;;;5.72;3.88;;;2.20;99.90;;;;;;5062759;28;20044;-82
2024/01/06 06:48:29;;;;;;;5.13;3.35;;;2.20;99.90;;;;;;5067632;28;20044;-82
2024/01/06 06:50:55;;;;;;;10.38;3.90;;;2.20;99.90;;;;;;5069325;28;20036;-82
2024/01/06 06:53:21;;;;;;;5.60;3.17;;;2.20;99.90;;;;;;5049448;28;20041;-82
2024/01/06 06:55:47;;;;;;;11.30;4.50;;;2.20;99.90;;;;;;5050845;28;20426;-82
2024/01/06 06:58:12;;;;;;;10.00;4.43;;;2.20;99.90;;;;;;5065180;28;20098;-82
2024/01/06 07:00:39;;;;;;;8.82;3.58;;;2.20;99.90;;;;;;5065573;28;20449;-82
2024/01/06 07:03:05;;;;;;;4.95;2.90;;;2.20;99.90;;;;;;5061211;28;20036;-82
2024/01/06 07:05:30;;;;;;;7.75;3.90;;;2.20;99.90;;;;;;5042926;28;20072;-82
2024/01/06 07:07:56;;;;;;;6.93;3.28;;;2.20;99.90;;;;;;5070238;28;20422;-82
2024/01/06 07:10:22;;;;;;;14.60;4.03;;;2.20;99.90;;;;;;5072334;28;20205;-82
2024/01/06 07:12:48;;;;;;;10.10;4.70;;;2.20;99.90;;;;;;5068000;28;20189;-82
2024/01/06 07:15:14;;;;;;;5.70;3.35;;;2.20;99.90;;;;;;5067836;28;20115;-82
2024/01/06 07:17:40;;;;;;;6.22;3.33;;;2.20;99.90;;;;;;5070775;28;20115;-82
2024/01/06 07:20:09;;;;;;;6.88;4.07;;;2.20;99.90;;;;;;5061277;28;20040;-83
2024/01/06 07:22:35;;;;;;;7.57;4.13;;;2.20;99.90;;;;;;5063136;28;20040;-82
2024/01/06 07:25:01;;;;;;;8.77;4.75;;;2.20;99.90;;;;;;5073246;28;20047;-83
2024/01/06 07:27:27;;;;;;;7.28;3.95;;;2.20;99.90;;;;;;5049638;28;20037;-82
2024/01/06 07:29:53;;;;;;;7.78;3.78;;;2.20;99.90;;;;;;5069544;28;20486;-82
2024/01/06 07:32:19;;;;;;;8.70;4.22;;;2.20;99.90;;;;;;5045631;28;20032;-82
2024/01/06 07:34:44;;;;;;;7.75;3.50;;;2.20;99.90;;;;;;5072476;28;20036;-82
2024/01/06 07:37:10;;;;;;;6.93;3.53;;;2.20;99.90;;;;;;5070321;28;20040;-82
2024/01/06 07:39:36;;;;;;;5.78;3.58;;;2.20;99.90;;;;;;5070515;28;20064;-82
2024/01/06 07:42:02;;;;;;;4.47;2.85;;;2.20;99.90;;;;;;5053012;28;20035;-82
2024/01/06 07:44:28;;;;;;;8.55;3.55;;;2.20;99.90;;;;;;5071491;28;20075;-82
2024/01/06 07:47:02;;;;;;;4.80;2.80;;;2.20;99.90;;;;;;5059912;28;20056;-81
2024/01/06 07:49:27;;;;;;;6.93;4.00;;;2.20;99.90;;;;;;5035046;28;20545;-82
2024/01/06 07:51:53;;;;;;;7.25;3.35;;;2.20;99.90;;;;;;5036665;28;20033;-83
2024/01/06 07:54:19;;;;;;;4.40;3.00;;;2.20;99.90;;;;;;5092342;28;20512;-82
2024/01/06 07:56:45;;;;;;;8.85;3.58;;;2.20;99.90;;;;;;5042917;28;20060;-84
2024/01/06 07:59:11;;;;;;;6.68;3.28;;;2.20;99.90;;;;;;5046587;28;20427;-83
2024/01/06 08:01:37;;;;;;;7.25;4.20;;;2.20;99.90;;;;;;5050387;28;20041;-84
2024/01/06 08:04:03;;;;;;;7.70;3.60;;;2.20;99.90;;;;;;5025214;28;20033;-84
2024/01/06 08:06:29;;;;;;;6.25;3.53;;;2.20;99.90;;;;;;5031307;28;20033;-84
2024/01/06 08:08:54;;;;;;;5.82;3.45;;;2.20;99.90;;;;;;5027257;28;20044;-84
2024/01/06 08:11:20;;;;;;;5.15;3.08;;;2.20;99.90;;;;;;5029787;28;20041;-83
2024/01/06 08:13:47;;;;;;;6.80;3.83;;;2.20;99.90;;;;;;5030923;28;20137;-84
2024/01/06 08:16:12;;;;;;;4.45;2.85;;;2.20;99.90;;;;;;5030027;28;20508;-84
2024/01/06 08:18:38;;;;;;;7.00;4.15;;;2.30;99.90;;;;;;5068773;28;20047;-84
2024/01/06 08:21:04;;;;;;;6.15;3.72;;;2.30;99.90;;;;;;5073505;28;20035;-83
2024/01/06 08:23:30;;;;;;;8.40;3.33;;;2.30;99.90;;;;;;5044842;28;20402;-83
2024/01/06 08:25:56;;;;;;;9.63;4.18;;;2.30;99.90;;;;;;5055486;28;20063;-83
2024/01/06 08:28:23;;;;;;;10.45;3.35;;;2.30;99.90;;;;;;5031258;28;20617;-83
2024/01/06 08:30:49;;;;;;;6.43;4.00;;;2.30;99.90;;;;;;5041546;28;20498;-83
2024/01/06 08:33:15;;;;;;;5.07;3.25;;;2.30;99.90;;;;;;5040724;28;20045;-83
2024/01/06 08:35:41;;;;;;;9.18;3.67;;;2.30;99.90;;;;;;5053736;28;20045;-83
2024/01/06 08:38:07;;;;;;;9.05;4.35;;;2.30;99.90;;;;;;5047334;28;20094;-83
2024/01/06 08:40:34;;;;;;;6.13;3.78;;;2.40;99.90;;;;;;5048127;28;20025;-83
2024/01/06 08:43:00;;;;;;;8.30;3.38;;;2.40;99.90;;;;;;5048502;28;20044;-83
2024/01/06 08:45:32;;;;;;;9.40;3.97;;;2.40;99.90;;;;;;5024697;28;20079;-84
2024/01/06 08:48:13;;;;;;;6.40;3.83;;;2.40;99.90;;;;;;5046381;28;20132;-83
2024/01/06 08:50:39;;;;;;;11.82;3.35;;;2.40;99.90;;;;;;5054504;28;20123;-84
2024/01/06 08:53:04;;;;;;;6.07;3.95;;;2.40;99.90;;;;;;5047768;28;20466;-84
2024/01/06 08:55:30;;;;;;;7.50;3.70;;;2.40;99.90;;;;;;5028050;28;20066;-84
2024/01/06 08:57:56;;;;;;;13.25;4.47;;;2.40;99.90;;;;;;5045593;28;20037;-84
2024/01/06 09:00:22;;;;;;;7.18;3.80;;;2.40;99.90;;;;;;5042224;28;20036;-84
2024/01/06 09:02:48;;;;;;;8.90;4.30;;;2.50;99.90;;;;;;5032853;28;20040;-84
2024/01/06 09:05:14;;;;;;;8.50;3.67;;;2.40;99.90;;;;;;5036401;28;20120;-84
2024/01/06 09:07:40;;;;;;;8.95;4.65;;;2.40;99.90;;;;;;5033896;28;20116;-84
2024/01/06 09:10:07;;;;;;;4.43;2.97;;;2.50;99.90;;;;;;5038143;28;20076;-84
2024/01/06 09:12:32;;;;;;;8.18;3.95;;;2.50;99.90;;;;;;5048704;28;20042;-84
2024/01/06 09:14:58;;;;;;;6.20;3.65;;;2.50;99.90;;;;;;5042977;28;20119;-84
2024/01/06 09:17:24;;;;;;;10.20;4.78;;;2.50;99.90;;;;;;5045638;28;20048;-84
2024/01/06 09:19:50;;;;;;;6.13;4.20;;;2.50;99.90;;;;;;5044519;28;20107;-84
2024/01/06 09:22:15;;;;;;;6.05;3.88;;;2.50;99.90;;;;;;5022331;28;20091;-84
2024/01/06 09:24:41;;;;;;;6.30;3.95;;;2.50;99.90;;;;;;5042384;28;20120;-84
2024/01/06 09:27:07;;;;;;;6.28;3.72;;;2.50;99.90;;;;;;5048966;28;20040;-84
2024/01/06 09:29:33;;;;;;;6.18;3.88;;;2.50;99.90;;;;;;5043178;28;20071;-84
2024/01/06 09:31:58;;;;;;;8.20;4.68;;;2.50;99.90;;;;;;5041692;28;20044;-84
2024/01/06 09:34:24;;;;;;;5.90;3.70;;;2.50;99.90;;;;;;5047235;28;20040;-84
2024/01/06 09:36:50;;;;;;;9.18;4.90;;;2.50;99.90;;;;;;5035449;28;20048;-85
2024/01/06 09:39:16;;;;;;;10.18;4.85;;;2.50;99.90;;;;;;5017872;28;20033;-91
2024/01/06 09:41:42;;;;;;;9.32;4.80;;;2.50;99.90;;;;;;5006584;28;20032;-86
2024/01/06 09:44:08;;;;;;;11.90;4.72;;;2.50;99.90;;;;;;5006795;28;20040;-85
2024/01/06 09:46:48;;;;;;;8.82;5.07;;;2.60;99.90;;;;;;5038316;28;20080;-85
2024/01/06 09:49:15;;;;;;;6.55;4.03;;;2.50;99.90;;;;;;5045873;28;20078;-85
2024/01/06 09:51:40;;;;;;;8.55;4.88;;;2.60;99.90;;;;;;5041498;28;20048;-85
2024/01/06 09:54:12;;;;;;;7.88;3.45;;;2.60;99.90;;;;;;5030255;28;20041;-87
2024/01/06 09:56:39;;;;;;;7.30;4.13;;;2.60;99.90;;;;;;5025842;28;20033;-85
2024/01/06 09:59:05;;;;;;;9.23;4.82;;;2.60;99.90;;;;;;5030465;28;20116;-85
2024/01/06 10:01:31;;;;;;;7.35;4.60;;;2.60;99.90;;;;;;5024298;28;20144;-85
2024/01/06 10:03:56;;;;;;;12.43;5.65;;;2.60;99.90;;;;;;5040299;28;20060;-85
2024/01/06 10:06:22;;;;;;;6.38;4.13;;;2.60;99.90;;;;;;5041569;28;20032;-85
2024/01/06 10:08:52;;;;;;;8.00;4.93;;;2.60;99.90;;;;;;5040508;28;20041;-85
2024/01/06 10:11:22;;;;;;;7.88;4.72;;;2.60;99.90;;;;;;5038922;28;20044;-85
2024/01/06 10:13:52;;;;;;;9.88;4.68;;;2.60;99.90;;;;;;5030622;28;20102;-84
2024/01/06 10:16:18;;;;;;;8.38;5.18;;;2.70;99.90;;;;;;5040267;28;20041;-83
2024/01/06 10:18:44;;;;;;;7.97;4.20;;;2.70;99.90;;;;;;5041811;28;20775;-83
2024/01/06 10:21:11;;;;;;;8.27;4.25;;;2.70;99.90;;;;;;5032965;28;20068;-83
2024/01/06 10:23:36;;;;;;;7.85;4.35;;;2.70;99.90;;;;;;5040369;28;20090;-83
2024/01/06 10:26:02;;;;;;;7.75;4.20;;;2.80;99.90;;;;;;5042783;28;20036;-83
2024/01/06 10:28:29;;;;;;;7.68;4.22;;;2.80;99.90;;;;;;5039903;28;20086;-83
2024/01/06 10:30:56;;;;;;;9.85;5.35;;;2.80;99.90;;;;;;5039462;28;20450;-83
2024/01/06 10:33:23;;;;;;;9.77;6.03;;;2.90;99.90;;;;;;5056730;28;20071;-84
2024/01/06 10:35:49;;;;;;;10.43;5.60;;;2.80;99.90;;;;;;5039087;28;20041;-85
2024/01/06 10:38:15;;;;;;;8.63;4.40;;;2.80;99.90;;;;;;5031275;28;20075;-85
2024/01/06 10:41:01;;;;;;;11.18;5.38;;;2.90;99.90;;;;;;5024811;28;20044;-84
2024/01/06 10:43:34;;;;;;;8.48;4.47;;;2.90;99.90;;;;;;5023918;28;20037;-84
2024/01/06 10:46:10;;;;;;;6.97;4.68;;;2.90;99.90;;;;;;5042504;28;20057;-85
2024/01/06 10:48:38;;;;;;;8.13;4.38;;;2.90;99.90;;;;;;5041482;28;20403;-85
2024/01/06 10:51:07;;;;;;;10.65;4.53;;;2.90;99.90;;;;;;5023577;28;20098;-85
2024/01/06 10:53:37;;;;;;;7.45;4.05;;;2.90;99.90;;;;;;5047287;28;20037;-85
2024/01/06 10:56:03;;;;;;;5.25;3.63;;;2.90;99.90;;;;;;5040549;28;20049;-85
2024/01/06 10:58:32;;;;;;;9.45;4.43;;;2.90;99.90;;;;;;5042998;28;20039;-84
2024/01/06 11:00:58;;;;;;;9.25;3.97;;;2.90;99.90;;;;;;5043762;28;20399;-86
2024/01/06 11:03:25;;;;;;;8.77;4.53;;;2.90;99.90;;;;;;5044240;28;20044;-85
2024/01/06 11:05:50;;;;;;;9.85;4.43;;;2.80;99.90;;;;;;5042642;28;20040;-85
2024/01/06 11:08:21;;;;;;;8.80;3.75;;;2.80;99.90;;;;;;5034737;28;20102;-85
2024/01/06 11:10:47;;;;;;;12.15;5.60;;;2.90;99.90;;;;;;5042130;28;20091;-84
2024/01/06 11:13:20;;;;;;;9.10;5.22;;;2.90;99.90;;;;;;5029471;28;20032;-85
2024/01/06 11:15:52;;;;;;;8.45;4.95;;;2.80;99.90;;;;;;5050060;28;20045;-84
2024/01/06 11:18:34;;;;;;;8.88;3.75;;;2.90;99.90;;;;;;5042869;28;20037;-85
2024/01/06 11:21:25;;;;;;;10.70;4.32;;;2.90;99.90;;;;;;5050083;28;20967;-85
2024/01/06 11:24:24;;;;;;;7.00;4.18;;;2.90;99.90;;;;;;5028132;28;20045;-85
2024/01/06 11:26:52;;;;;;;7.65;4.22;;;2.90;99.90;;;;;;5032719;28;20422;-85
2024/01/06 11:29:20;;;;;;;11.10;5.05;;;2.90;99.90;;;;;;5043577;28;20036;-85
2024/01/06 11:32:25;;;;;;;8.75;4.47;;;3.00;99.90;;;;;;5041976;28;20703;-85
2024/01/06 11:34:52;;;;;;;7.15;4.45;;;3.00;99.90;;;;;;5047578;28;20459;-85
2024/01/06 11:37:41;;;;;;;8.77;4.68;;;3.00;99.90;;;;;;5043901;28;20121;-85
2024/01/06 11:40:25;;;;;;;8.00;4.10;;;3.10;99.90;;;;;;5026944;28;20083;-85
2024/01/06 11:43:06;;;;;;;5.88;3.40;;;3.20;99.90;;;;;;5042778;28;20128;-85
2024/01/06 11:45:33;;;;;;;12.55;5.28;;;3.20;99.90;;;;;;5028668;28;20045;-85
2024/01/06 11:48:17;;;;;;;6.85;3.88;;;3.20;99.90;;;;;;5023900;28;20049;-85
2024/01/06 11:50:43;;;;;;;8.35;3.88;;;3.20;99.90;;;;;;5029332;28;20092;-85
2024/01/06 11:53:12;;;;;;;9.43;4.05;;;3.20;99.90;;;;;;5022998;28;20041;-85
2024/01/06 11:55:42;;;;;;;7.63;4.30;;;3.20;99.90;;;;;;5023930;28;20038;-85
2024/01/06 11:58:08;;;;;;;10.18;4.15;;;3.30;99.90;;;;;;5022029;28;20404;-85
2024/01/06 12:00:39;;;;;;;5.95;3.72;;;3.30;99.90;;;;;;5022217;28;20037;-85
2024/01/06 12:03:04;;;;;;;8.57;4.75;;;3.40;99.90;;;;;;5006847;28;20030;-85
2024/01/06 12:05:30;;;;;;;7.93;3.40;;;3.30;99.90;;;;;;5023468;28;20529;-85
2024/01/06 12:07:58;;;;;;;7.03;3.65;;;3.30;99.90;;;;;;5023422;28;20175;-85
2024/01/06 12:10:25;;;;;;;6.53;4.43;;;3.30;99.90;;;;;;5024035;28;20053;-85
2024/01/06 12:13:12;;;;;;;8.68;3.30;;;3.30;99.90;;;;;;5024430;28;20040;-85
2024/01/06 12:15:39;;;;;;;8.05;3.92;;;3.20;99.90;;;;;;5007348;28;20038;-85
2024/01/06 12:18:05;;;;;;;6.60;3.85;;;3.20;99.90;;;;;;5022444;28;20033;-84
2024/01/06 12:20:32;;;;;;;5.53;3.75;;;3.20;99.90;;;;;;5056388;28;20039;-85
2024/01/06 12:23:00;;;;;;;7.63;4.20;;;3.10;99.90;;;;;;5022560;28;20033;-84
2024/01/06 12:25:28;;;;;;;6.63;3.10;;;3.10;99.90;;;;;;5023290;28;20403;-84
2024/01/06 12:27:54;;;;;;;8.00;4.10;;;3.10;99.90;;;;;;5029442;28;20041;-84
2024/01/06 12:30:22;;;;;;;5.38;3.22;;;3.10;99.90;;;;;;5022812;28;20087;-85
2024/01/06 12:32:49;;;;;;;5.72;3.53;;;3.10;99.90;;;;;;5014403;28;20429;-85
2024/01/06 12:35:15;;;;;;;5.50;3.15;;;3.10;99.90;;;;;;5028361;28;20395;-85
2024/01/06 12:37:45;;;;;;;6.25;3.75;;;3.10;99.90;;;;;;5023607;28;20577;-85
2024/01/06 12:40:13;;;;;;;5.18;3.25;;;3.10;99.90;;;;;;5005523;28;20120;-84
2024/01/06 12:42:39;;;;;;;6.85;3.47;;;3.10;99.90;;;;;;5012207;28;20480;-84
2024/01/06 12:45:12;;;;;;;6.35;3.40;;;3.10;99.90;;;;;;5022208;28;20033;-83
2024/01/06 12:47:51;;;;;;;;;;;3.10;99.90;;;;;;5014218;28;20125;-83
2024/01/06 12:50:18;;;;;;;5.00;2.95;;;3.10;99.90;;;;;;5022760;28;19924;-83
2024/01/06 12:52:45;;;;;;;5.75;3.33;;;3.10;99.90;;;;;;5022963;28;20487;-83
2024/01/06 12:55:12;;;;;;;4.82;2.90;;;3.10;99.90;;;;;;5021875;28;20037;-83
2024/01/06 12:57:38;;;;;;;6.75;3.80;;;3.10;99.90;;;;;;5020958;28;20048;-84